<?xml version="1.0" encoding="UTF-8" standalone="no" ?>
<gpx xmlns="http://www.topografix.com/GPX/1/1" xmlns:xsi="http://www.w3.org/2001/XMLSchema-instance" xsi:schemaLocation="http://www.topografix.com/GPX/1/1 http://www.topografix.com/GPX/1/1/gpx.xsd" version="1.1" creator="VisuGPX - https://www.visugpx.com">
  <metadata>
    <name>Remise en forme Juillet 2017</name>
    <desc><![CDATA[Un petit circuit assez facile, juste pour dire de faire un peu de sport pas technique juste travail endurance.]]></desc>
  </metadata>
  <trk>
    <name><![CDATA[Remise en forme Juillet 2017_1]]></name>
    <trkseg>
      <trkpt lat="49.9813" lon="5.26839">
        <ele>311</ele>
        <time>2017-07-03T14:08:11Z</time>
      </trkpt>
      <trkpt lat="49.98132" lon="5.26844">
        <ele>311</ele>
        <time>2017-07-03T14:08:21Z</time>
      </trkpt>
      <trkpt lat="49.98134" lon="5.26842">
        <ele>311</ele>
        <time>2017-07-03T14:08:32Z</time>
      </trkpt>
      <trkpt lat="49.98147" lon="5.26823">
        <ele>311</ele>
        <time>2017-07-03T14:08:43Z</time>
      </trkpt>
      <trkpt lat="49.98168" lon="5.26764">
        <ele>310</ele>
        <time>2017-07-03T14:08:53Z</time>
      </trkpt>
      <trkpt lat="49.98207" lon="5.26769">
        <ele>311</ele>
        <time>2017-07-03T14:09:04Z</time>
      </trkpt>
      <trkpt lat="49.98234" lon="5.26751">
        <ele>314</ele>
        <time>2017-07-03T14:09:14Z</time>
      </trkpt>
      <trkpt lat="49.98262" lon="5.26738">
        <ele>315</ele>
        <time>2017-07-03T14:09:24Z</time>
      </trkpt>
      <trkpt lat="49.98294" lon="5.26729">
        <ele>318</ele>
        <time>2017-07-03T14:09:35Z</time>
      </trkpt>
      <trkpt lat="49.98326" lon="5.26722">
        <ele>320</ele>
        <time>2017-07-03T14:09:46Z</time>
      </trkpt>
      <trkpt lat="49.98352" lon="5.26718">
        <ele>322</ele>
        <time>2017-07-03T14:09:56Z</time>
      </trkpt>
      <trkpt lat="49.98379" lon="5.26723">
        <ele>324</ele>
        <time>2017-07-03T14:10:07Z</time>
      </trkpt>
      <trkpt lat="49.98388" lon="5.26763">
        <ele>324</ele>
        <time>2017-07-03T14:10:17Z</time>
      </trkpt>
      <trkpt lat="49.98397" lon="5.26806">
        <ele>326</ele>
        <time>2017-07-03T14:10:28Z</time>
      </trkpt>
      <trkpt lat="49.98404" lon="5.26847">
        <ele>327</ele>
        <time>2017-07-03T14:10:39Z</time>
      </trkpt>
      <trkpt lat="49.98409" lon="5.26881">
        <ele>328</ele>
        <time>2017-07-03T14:10:49Z</time>
      </trkpt>
      <trkpt lat="49.98417" lon="5.2692">
        <ele>329</ele>
        <time>2017-07-03T14:11:00Z</time>
      </trkpt>
      <trkpt lat="49.98425" lon="5.26964">
        <ele>331</ele>
        <time>2017-07-03T14:11:11Z</time>
      </trkpt>
      <trkpt lat="49.9843" lon="5.27003">
        <ele>333</ele>
        <time>2017-07-03T14:11:21Z</time>
      </trkpt>
      <trkpt lat="49.98435" lon="5.27047">
        <ele>335</ele>
        <time>2017-07-03T14:11:32Z</time>
      </trkpt>
      <trkpt lat="49.98438" lon="5.27089">
        <ele>336</ele>
        <time>2017-07-03T14:11:43Z</time>
      </trkpt>
      <trkpt lat="49.98441" lon="5.27129">
        <ele>338</ele>
        <time>2017-07-03T14:11:54Z</time>
      </trkpt>
      <trkpt lat="49.98442" lon="5.27166">
        <ele>339</ele>
        <time>2017-07-03T14:12:04Z</time>
      </trkpt>
      <trkpt lat="49.98442" lon="5.27207">
        <ele>341</ele>
        <time>2017-07-03T14:12:15Z</time>
      </trkpt>
      <trkpt lat="49.98441" lon="5.27246">
        <ele>342</ele>
        <time>2017-07-03T14:12:25Z</time>
      </trkpt>
      <trkpt lat="49.98441" lon="5.27289">
        <ele>344</ele>
        <time>2017-07-03T14:12:35Z</time>
      </trkpt>
      <trkpt lat="49.98438" lon="5.27334">
        <ele>345</ele>
        <time>2017-07-03T14:12:45Z</time>
      </trkpt>
      <trkpt lat="49.98436" lon="5.27381">
        <ele>346</ele>
        <time>2017-07-03T14:12:56Z</time>
      </trkpt>
      <trkpt lat="49.98435" lon="5.2743">
        <ele>346</ele>
        <time>2017-07-03T14:13:07Z</time>
      </trkpt>
      <trkpt lat="49.98443" lon="5.27501">
        <ele>346</ele>
        <time>2017-07-03T14:13:18Z</time>
      </trkpt>
      <trkpt lat="49.98462" lon="5.27595">
        <ele>345</ele>
        <time>2017-07-03T14:13:29Z</time>
      </trkpt>
      <trkpt lat="49.98481" lon="5.27694">
        <ele>345</ele>
        <time>2017-07-03T14:13:39Z</time>
      </trkpt>
      <trkpt lat="49.98498" lon="5.27784">
        <ele>345</ele>
        <time>2017-07-03T14:13:49Z</time>
      </trkpt>
      <trkpt lat="49.98514" lon="5.27871">
        <ele>345</ele>
        <time>2017-07-03T14:14:00Z</time>
      </trkpt>
      <trkpt lat="49.98521" lon="5.27925">
        <ele>347</ele>
        <time>2017-07-03T14:14:10Z</time>
      </trkpt>
      <trkpt lat="49.98521" lon="5.27971">
        <ele>348</ele>
        <time>2017-07-03T14:14:21Z</time>
      </trkpt>
      <trkpt lat="49.98522" lon="5.28013">
        <ele>349</ele>
        <time>2017-07-03T14:14:31Z</time>
      </trkpt>
      <trkpt lat="49.98524" lon="5.28058">
        <ele>349</ele>
        <time>2017-07-03T14:14:42Z</time>
      </trkpt>
      <trkpt lat="49.98525" lon="5.28098">
        <ele>351</ele>
        <time>2017-07-03T14:14:52Z</time>
      </trkpt>
      <trkpt lat="49.98527" lon="5.28141">
        <ele>352</ele>
        <time>2017-07-03T14:15:03Z</time>
      </trkpt>
      <trkpt lat="49.98528" lon="5.28186">
        <ele>353</ele>
        <time>2017-07-03T14:15:14Z</time>
      </trkpt>
      <trkpt lat="49.98507" lon="5.28217">
        <ele>353</ele>
        <time>2017-07-03T14:15:24Z</time>
      </trkpt>
      <trkpt lat="49.98434" lon="5.28216">
        <ele>352</ele>
        <time>2017-07-03T14:15:35Z</time>
      </trkpt>
      <trkpt lat="49.98351" lon="5.28217">
        <ele>345</ele>
        <time>2017-07-03T14:15:46Z</time>
      </trkpt>
      <trkpt lat="49.98291" lon="5.28219">
        <ele>338</ele>
        <time>2017-07-03T14:15:57Z</time>
      </trkpt>
      <trkpt lat="49.98211" lon="5.28239">
        <ele>335</ele>
        <time>2017-07-03T14:16:08Z</time>
      </trkpt>
      <trkpt lat="49.98143" lon="5.283">
        <ele>330</ele>
        <time>2017-07-03T14:16:19Z</time>
      </trkpt>
      <trkpt lat="49.98091" lon="5.28358">
        <ele>330</ele>
        <time>2017-07-03T14:16:30Z</time>
      </trkpt>
      <trkpt lat="49.98051" lon="5.28417">
        <ele>329</ele>
        <time>2017-07-03T14:16:40Z</time>
      </trkpt>
      <trkpt lat="49.98014" lon="5.28482">
        <ele>329</ele>
        <time>2017-07-03T14:16:50Z</time>
      </trkpt>
      <trkpt lat="49.97978" lon="5.28541">
        <ele>330</ele>
        <time>2017-07-03T14:17:01Z</time>
      </trkpt>
      <trkpt lat="49.97955" lon="5.2859">
        <ele>330</ele>
        <time>2017-07-03T14:17:11Z</time>
      </trkpt>
      <trkpt lat="49.97942" lon="5.28632">
        <ele>331</ele>
        <time>2017-07-03T14:17:21Z</time>
      </trkpt>
      <trkpt lat="49.97917" lon="5.28677">
        <ele>332</ele>
        <time>2017-07-03T14:17:32Z</time>
      </trkpt>
      <trkpt lat="49.97886" lon="5.28712">
        <ele>332</ele>
        <time>2017-07-03T14:17:43Z</time>
      </trkpt>
      <trkpt lat="49.97858" lon="5.28731">
        <ele>333</ele>
        <time>2017-07-03T14:17:54Z</time>
      </trkpt>
      <trkpt lat="49.97838" lon="5.2871">
        <ele>333</ele>
        <time>2017-07-03T14:18:04Z</time>
      </trkpt>
      <trkpt lat="49.97812" lon="5.28683">
        <ele>334</ele>
        <time>2017-07-03T14:18:14Z</time>
      </trkpt>
      <trkpt lat="49.97781" lon="5.28668">
        <ele>335</ele>
        <time>2017-07-03T14:18:25Z</time>
      </trkpt>
      <trkpt lat="49.97761" lon="5.28663">
        <ele>336</ele>
        <time>2017-07-03T14:18:35Z</time>
      </trkpt>
      <trkpt lat="49.97741" lon="5.28657">
        <ele>337</ele>
        <time>2017-07-03T14:18:45Z</time>
      </trkpt>
      <trkpt lat="49.97715" lon="5.28649">
        <ele>337</ele>
        <time>2017-07-03T14:18:55Z</time>
      </trkpt>
      <trkpt lat="49.9769" lon="5.28646">
        <ele>339</ele>
        <time>2017-07-03T14:19:05Z</time>
      </trkpt>
      <trkpt lat="49.97669" lon="5.28662">
        <ele>340</ele>
        <time>2017-07-03T14:19:16Z</time>
      </trkpt>
      <trkpt lat="49.97674" lon="5.2873">
        <ele>338</ele>
        <time>2017-07-03T14:19:27Z</time>
      </trkpt>
      <trkpt lat="49.97688" lon="5.28809">
        <ele>338</ele>
        <time>2017-07-03T14:19:37Z</time>
      </trkpt>
      <trkpt lat="49.97716" lon="5.28871">
        <ele>340</ele>
        <time>2017-07-03T14:19:48Z</time>
      </trkpt>
      <trkpt lat="49.97736" lon="5.28909">
        <ele>341</ele>
        <time>2017-07-03T14:19:59Z</time>
      </trkpt>
      <trkpt lat="49.97756" lon="5.28945">
        <ele>343</ele>
        <time>2017-07-03T14:20:10Z</time>
      </trkpt>
      <trkpt lat="49.9777" lon="5.28976">
        <ele>345</ele>
        <time>2017-07-03T14:20:20Z</time>
      </trkpt>
      <trkpt lat="49.97782" lon="5.2901">
        <ele>346</ele>
        <time>2017-07-03T14:20:31Z</time>
      </trkpt>
      <trkpt lat="49.97791" lon="5.29042">
        <ele>347</ele>
        <time>2017-07-03T14:20:41Z</time>
      </trkpt>
      <trkpt lat="49.978" lon="5.29076">
        <ele>348</ele>
        <time>2017-07-03T14:20:52Z</time>
      </trkpt>
      <trkpt lat="49.97807" lon="5.29108">
        <ele>350</ele>
        <time>2017-07-03T14:21:02Z</time>
      </trkpt>
      <trkpt lat="49.97813" lon="5.29148">
        <ele>351</ele>
        <time>2017-07-03T14:21:13Z</time>
      </trkpt>
      <trkpt lat="49.97817" lon="5.29182">
        <ele>353</ele>
        <time>2017-07-03T14:21:23Z</time>
      </trkpt>
      <trkpt lat="49.97821" lon="5.29217">
        <ele>354</ele>
        <time>2017-07-03T14:21:33Z</time>
      </trkpt>
      <trkpt lat="49.97825" lon="5.29257">
        <ele>355</ele>
        <time>2017-07-03T14:21:44Z</time>
      </trkpt>
      <trkpt lat="49.97829" lon="5.29292">
        <ele>357</ele>
        <time>2017-07-03T14:21:54Z</time>
      </trkpt>
      <trkpt lat="49.97834" lon="5.29324">
        <ele>359</ele>
        <time>2017-07-03T14:22:04Z</time>
      </trkpt>
      <trkpt lat="49.97837" lon="5.29361">
        <ele>361</ele>
        <time>2017-07-03T14:22:15Z</time>
      </trkpt>
      <trkpt lat="49.9784" lon="5.29395">
        <ele>361</ele>
        <time>2017-07-03T14:22:25Z</time>
      </trkpt>
      <trkpt lat="49.97844" lon="5.2943">
        <ele>363</ele>
        <time>2017-07-03T14:22:36Z</time>
      </trkpt>
      <trkpt lat="49.97848" lon="5.29462">
        <ele>365</ele>
        <time>2017-07-03T14:22:46Z</time>
      </trkpt>
      <trkpt lat="49.97852" lon="5.29498">
        <ele>366</ele>
        <time>2017-07-03T14:22:57Z</time>
      </trkpt>
      <trkpt lat="49.97855" lon="5.2953">
        <ele>368</ele>
        <time>2017-07-03T14:23:07Z</time>
      </trkpt>
      <trkpt lat="49.97857" lon="5.29567">
        <ele>369</ele>
        <time>2017-07-03T14:23:18Z</time>
      </trkpt>
      <trkpt lat="49.97861" lon="5.29603">
        <ele>371</ele>
        <time>2017-07-03T14:23:29Z</time>
      </trkpt>
      <trkpt lat="49.97865" lon="5.29635">
        <ele>372</ele>
        <time>2017-07-03T14:23:39Z</time>
      </trkpt>
      <trkpt lat="49.97869" lon="5.29664">
        <ele>373</ele>
        <time>2017-07-03T14:23:49Z</time>
      </trkpt>
      <trkpt lat="49.97874" lon="5.29701">
        <ele>375</ele>
        <time>2017-07-03T14:24:00Z</time>
      </trkpt>
      <trkpt lat="49.97878" lon="5.29737">
        <ele>376</ele>
        <time>2017-07-03T14:24:11Z</time>
      </trkpt>
      <trkpt lat="49.97883" lon="5.29772">
        <ele>377</ele>
        <time>2017-07-03T14:24:21Z</time>
      </trkpt>
      <trkpt lat="49.9789" lon="5.29811">
        <ele>379</ele>
        <time>2017-07-03T14:24:32Z</time>
      </trkpt>
      <trkpt lat="49.97898" lon="5.2985">
        <ele>381</ele>
        <time>2017-07-03T14:24:43Z</time>
      </trkpt>
      <trkpt lat="49.97907" lon="5.29886">
        <ele>382</ele>
        <time>2017-07-03T14:24:54Z</time>
      </trkpt>
      <trkpt lat="49.97915" lon="5.29917">
        <ele>384</ele>
        <time>2017-07-03T14:25:04Z</time>
      </trkpt>
      <trkpt lat="49.97924" lon="5.2995">
        <ele>385</ele>
        <time>2017-07-03T14:25:15Z</time>
      </trkpt>
      <trkpt lat="49.97936" lon="5.29981">
        <ele>385</ele>
        <time>2017-07-03T14:25:26Z</time>
      </trkpt>
      <trkpt lat="49.97947" lon="5.30011">
        <ele>387</ele>
        <time>2017-07-03T14:25:37Z</time>
      </trkpt>
      <trkpt lat="49.97961" lon="5.30051">
        <ele>387</ele>
        <time>2017-07-03T14:25:47Z</time>
      </trkpt>
      <trkpt lat="49.97982" lon="5.30111">
        <ele>388</ele>
        <time>2017-07-03T14:25:58Z</time>
      </trkpt>
      <trkpt lat="49.98011" lon="5.30183">
        <ele>387</ele>
        <time>2017-07-03T14:26:08Z</time>
      </trkpt>
      <trkpt lat="49.98051" lon="5.30262">
        <ele>386</ele>
        <time>2017-07-03T14:26:18Z</time>
      </trkpt>
      <trkpt lat="49.98117" lon="5.30398">
        <ele>382</ele>
        <time>2017-07-03T14:26:29Z</time>
      </trkpt>
      <trkpt lat="49.98189" lon="5.30548">
        <ele>374</ele>
        <time>2017-07-03T14:26:39Z</time>
      </trkpt>
      <trkpt lat="49.98279" lon="5.30729">
        <ele>363</ele>
        <time>2017-07-03T14:26:50Z</time>
      </trkpt>
      <trkpt lat="49.9837" lon="5.30911">
        <ele>348</ele>
        <time>2017-07-03T14:27:00Z</time>
      </trkpt>
      <trkpt lat="49.98447" lon="5.31068">
        <ele>331</ele>
        <time>2017-07-03T14:27:10Z</time>
      </trkpt>
      <trkpt lat="49.98475" lon="5.31139">
        <ele>315</ele>
        <time>2017-07-03T14:27:20Z</time>
      </trkpt>
      <trkpt lat="49.98467" lon="5.31146">
        <ele>314</ele>
        <time>2017-07-03T14:27:31Z</time>
      </trkpt>
      <trkpt lat="49.98481" lon="5.31146">
        <ele>314</ele>
        <time>2017-07-03T14:27:41Z</time>
      </trkpt>
      <trkpt lat="49.9847" lon="5.31152">
        <ele>314</ele>
        <time>2017-07-03T14:27:51Z</time>
      </trkpt>
      <trkpt lat="49.9845" lon="5.31157">
        <ele>316</ele>
        <time>2017-07-03T14:28:02Z</time>
      </trkpt>
      <trkpt lat="49.98428" lon="5.31164">
        <ele>318</ele>
        <time>2017-07-03T14:28:13Z</time>
      </trkpt>
      <trkpt lat="49.98413" lon="5.31166">
        <ele>319</ele>
        <time>2017-07-03T14:28:23Z</time>
      </trkpt>
      <trkpt lat="49.98392" lon="5.3117">
        <ele>321</ele>
        <time>2017-07-03T14:28:34Z</time>
      </trkpt>
      <trkpt lat="49.98376" lon="5.31175">
        <ele>323</ele>
        <time>2017-07-03T14:28:44Z</time>
      </trkpt>
      <trkpt lat="49.98359" lon="5.31179">
        <ele>325</ele>
        <time>2017-07-03T14:28:55Z</time>
      </trkpt>
      <trkpt lat="49.98341" lon="5.31183">
        <ele>327</ele>
        <time>2017-07-03T14:29:05Z</time>
      </trkpt>
      <trkpt lat="49.98321" lon="5.31186">
        <ele>328</ele>
        <time>2017-07-03T14:29:15Z</time>
      </trkpt>
      <trkpt lat="49.98302" lon="5.3119">
        <ele>330</ele>
        <time>2017-07-03T14:29:25Z</time>
      </trkpt>
      <trkpt lat="49.9828" lon="5.31198">
        <ele>332</ele>
        <time>2017-07-03T14:29:36Z</time>
      </trkpt>
      <trkpt lat="49.98258" lon="5.31202">
        <ele>334</ele>
        <time>2017-07-03T14:29:46Z</time>
      </trkpt>
      <trkpt lat="49.98237" lon="5.3121">
        <ele>335</ele>
        <time>2017-07-03T14:29:57Z</time>
      </trkpt>
      <trkpt lat="49.98215" lon="5.3122">
        <ele>336</ele>
        <time>2017-07-03T14:30:08Z</time>
      </trkpt>
      <trkpt lat="49.98196" lon="5.31237">
        <ele>339</ele>
        <time>2017-07-03T14:30:18Z</time>
      </trkpt>
      <trkpt lat="49.98176" lon="5.31261">
        <ele>340</ele>
        <time>2017-07-03T14:30:28Z</time>
      </trkpt>
      <trkpt lat="49.98151" lon="5.31286">
        <ele>341</ele>
        <time>2017-07-03T14:30:39Z</time>
      </trkpt>
      <trkpt lat="49.9813" lon="5.31311">
        <ele>342</ele>
        <time>2017-07-03T14:30:50Z</time>
      </trkpt>
      <trkpt lat="49.98108" lon="5.31329">
        <ele>344</ele>
        <time>2017-07-03T14:31:01Z</time>
      </trkpt>
      <trkpt lat="49.98087" lon="5.3135">
        <ele>345</ele>
        <time>2017-07-03T14:31:11Z</time>
      </trkpt>
      <trkpt lat="49.9806" lon="5.3137">
        <ele>346</ele>
        <time>2017-07-03T14:31:21Z</time>
      </trkpt>
      <trkpt lat="49.98031" lon="5.31392">
        <ele>347</ele>
        <time>2017-07-03T14:31:32Z</time>
      </trkpt>
      <trkpt lat="49.97997" lon="5.31415">
        <ele>347</ele>
        <time>2017-07-03T14:31:42Z</time>
      </trkpt>
      <trkpt lat="49.97958" lon="5.31435">
        <ele>348</ele>
        <time>2017-07-03T14:31:52Z</time>
      </trkpt>
      <trkpt lat="49.97909" lon="5.31444">
        <ele>348</ele>
        <time>2017-07-03T14:32:03Z</time>
      </trkpt>
      <trkpt lat="49.97859" lon="5.3145">
        <ele>349</ele>
        <time>2017-07-03T14:32:13Z</time>
      </trkpt>
      <trkpt lat="49.978" lon="5.31459">
        <ele>348</ele>
        <time>2017-07-03T14:32:24Z</time>
      </trkpt>
      <trkpt lat="49.97742" lon="5.31466">
        <ele>348</ele>
        <time>2017-07-03T14:32:35Z</time>
      </trkpt>
      <trkpt lat="49.97687" lon="5.3147">
        <ele>348</ele>
        <time>2017-07-03T14:32:46Z</time>
      </trkpt>
      <trkpt lat="49.97636" lon="5.31468">
        <ele>348</ele>
        <time>2017-07-03T14:32:56Z</time>
      </trkpt>
      <trkpt lat="49.97564" lon="5.31472">
        <ele>346</ele>
        <time>2017-07-03T14:33:07Z</time>
      </trkpt>
      <trkpt lat="49.97483" lon="5.31474">
        <ele>345</ele>
        <time>2017-07-03T14:33:17Z</time>
      </trkpt>
      <trkpt lat="49.97388" lon="5.31465">
        <ele>340</ele>
        <time>2017-07-03T14:33:28Z</time>
      </trkpt>
      <trkpt lat="49.97304" lon="5.31355">
        <ele>336</ele>
        <time>2017-07-03T14:33:38Z</time>
      </trkpt>
      <trkpt lat="49.97239" lon="5.31192">
        <ele>331</ele>
        <time>2017-07-03T14:33:49Z</time>
      </trkpt>
      <trkpt lat="49.9722" lon="5.31069">
        <ele>328</ele>
        <time>2017-07-03T14:33:59Z</time>
      </trkpt>
      <trkpt lat="49.97214" lon="5.31001">
        <ele>327</ele>
        <time>2017-07-03T14:34:10Z</time>
      </trkpt>
      <trkpt lat="49.9721" lon="5.30955">
        <ele>329</ele>
        <time>2017-07-03T14:34:20Z</time>
      </trkpt>
      <trkpt lat="49.97206" lon="5.3091">
        <ele>331</ele>
        <time>2017-07-03T14:34:31Z</time>
      </trkpt>
      <trkpt lat="49.97203" lon="5.30872">
        <ele>332</ele>
        <time>2017-07-03T14:34:41Z</time>
      </trkpt>
      <trkpt lat="49.97199" lon="5.30834">
        <ele>333</ele>
        <time>2017-07-03T14:34:51Z</time>
      </trkpt>
      <trkpt lat="49.97196" lon="5.30798">
        <ele>334</ele>
        <time>2017-07-03T14:35:02Z</time>
      </trkpt>
      <trkpt lat="49.97193" lon="5.30768">
        <ele>335</ele>
        <time>2017-07-03T14:35:12Z</time>
      </trkpt>
      <trkpt lat="49.97189" lon="5.30728">
        <ele>336</ele>
        <time>2017-07-03T14:35:22Z</time>
      </trkpt>
      <trkpt lat="49.97183" lon="5.30679">
        <ele>338</ele>
        <time>2017-07-03T14:35:33Z</time>
      </trkpt>
      <trkpt lat="49.97179" lon="5.30632">
        <ele>339</ele>
        <time>2017-07-03T14:35:44Z</time>
      </trkpt>
      <trkpt lat="49.97174" lon="5.30588">
        <ele>341</ele>
        <time>2017-07-03T14:35:54Z</time>
      </trkpt>
      <trkpt lat="49.97169" lon="5.30542">
        <ele>342</ele>
        <time>2017-07-03T14:36:05Z</time>
      </trkpt>
      <trkpt lat="49.97163" lon="5.30496">
        <ele>343</ele>
        <time>2017-07-03T14:36:16Z</time>
      </trkpt>
      <trkpt lat="49.97153" lon="5.30454">
        <ele>345</ele>
        <time>2017-07-03T14:36:26Z</time>
      </trkpt>
      <trkpt lat="49.97143" lon="5.30415">
        <ele>346</ele>
        <time>2017-07-03T14:36:36Z</time>
      </trkpt>
      <trkpt lat="49.97147" lon="5.30375">
        <ele>348</ele>
        <time>2017-07-03T14:36:46Z</time>
      </trkpt>
      <trkpt lat="49.97151" lon="5.30327">
        <ele>349</ele>
        <time>2017-07-03T14:36:57Z</time>
      </trkpt>
      <trkpt lat="49.97154" lon="5.30279">
        <ele>349</ele>
        <time>2017-07-03T14:37:08Z</time>
      </trkpt>
      <trkpt lat="49.97158" lon="5.30229">
        <ele>349</ele>
        <time>2017-07-03T14:37:19Z</time>
      </trkpt>
      <trkpt lat="49.97161" lon="5.30175">
        <ele>350</ele>
        <time>2017-07-03T14:37:29Z</time>
      </trkpt>
      <trkpt lat="49.97164" lon="5.3012">
        <ele>352</ele>
        <time>2017-07-03T14:37:39Z</time>
      </trkpt>
      <trkpt lat="49.97167" lon="5.30069">
        <ele>353</ele>
        <time>2017-07-03T14:37:50Z</time>
      </trkpt>
      <trkpt lat="49.97169" lon="5.30022">
        <ele>354</ele>
        <time>2017-07-03T14:38:00Z</time>
      </trkpt>
      <trkpt lat="49.97172" lon="5.2997">
        <ele>354</ele>
        <time>2017-07-03T14:38:11Z</time>
      </trkpt>
      <trkpt lat="49.97178" lon="5.29918">
        <ele>356</ele>
        <time>2017-07-03T14:38:22Z</time>
      </trkpt>
      <trkpt lat="49.97187" lon="5.29871">
        <ele>357</ele>
        <time>2017-07-03T14:38:33Z</time>
      </trkpt>
      <trkpt lat="49.97189" lon="5.29811">
        <ele>358</ele>
        <time>2017-07-03T14:38:43Z</time>
      </trkpt>
      <trkpt lat="49.97192" lon="5.29751">
        <ele>359</ele>
        <time>2017-07-03T14:38:53Z</time>
      </trkpt>
      <trkpt lat="49.97198" lon="5.29688">
        <ele>360</ele>
        <time>2017-07-03T14:39:04Z</time>
      </trkpt>
      <trkpt lat="49.97208" lon="5.29633">
        <ele>361</ele>
        <time>2017-07-03T14:39:15Z</time>
      </trkpt>
      <trkpt lat="49.9722" lon="5.29584">
        <ele>361</ele>
        <time>2017-07-03T14:39:25Z</time>
      </trkpt>
      <trkpt lat="49.97232" lon="5.29522">
        <ele>362</ele>
        <time>2017-07-03T14:39:36Z</time>
      </trkpt>
      <trkpt lat="49.97246" lon="5.29463">
        <ele>362</ele>
        <time>2017-07-03T14:39:47Z</time>
      </trkpt>
      <trkpt lat="49.97269" lon="5.29388">
        <ele>363</ele>
        <time>2017-07-03T14:39:58Z</time>
      </trkpt>
      <trkpt lat="49.97298" lon="5.2931">
        <ele>362</ele>
        <time>2017-07-03T14:40:08Z</time>
      </trkpt>
      <trkpt lat="49.97331" lon="5.29188">
        <ele>358</ele>
        <time>2017-07-03T14:40:18Z</time>
      </trkpt>
      <trkpt lat="49.97309" lon="5.29031">
        <ele>353</ele>
        <time>2017-07-03T14:40:28Z</time>
      </trkpt>
      <trkpt lat="49.97328" lon="5.28902">
        <ele>353</ele>
        <time>2017-07-03T14:40:39Z</time>
      </trkpt>
      <trkpt lat="49.97336" lon="5.28807">
        <ele>353</ele>
        <time>2017-07-03T14:40:49Z</time>
      </trkpt>
      <trkpt lat="49.97347" lon="5.28706">
        <ele>352</ele>
        <time>2017-07-03T14:41:00Z</time>
      </trkpt>
      <trkpt lat="49.97364" lon="5.28627">
        <ele>352</ele>
        <time>2017-07-03T14:41:10Z</time>
      </trkpt>
      <trkpt lat="49.97385" lon="5.28568">
        <ele>352</ele>
        <time>2017-07-03T14:41:20Z</time>
      </trkpt>
      <trkpt lat="49.97406" lon="5.28505">
        <ele>353</ele>
        <time>2017-07-03T14:41:31Z</time>
      </trkpt>
      <trkpt lat="49.97423" lon="5.28449">
        <ele>353</ele>
        <time>2017-07-03T14:41:41Z</time>
      </trkpt>
      <trkpt lat="49.97443" lon="5.28389">
        <ele>354</ele>
        <time>2017-07-03T14:41:52Z</time>
      </trkpt>
      <trkpt lat="49.9746" lon="5.28333">
        <ele>355</ele>
        <time>2017-07-03T14:42:02Z</time>
      </trkpt>
      <trkpt lat="49.97481" lon="5.28259">
        <ele>356</ele>
        <time>2017-07-03T14:42:13Z</time>
      </trkpt>
      <trkpt lat="49.97505" lon="5.28191">
        <ele>355</ele>
        <time>2017-07-03T14:42:24Z</time>
      </trkpt>
      <trkpt lat="49.97528" lon="5.28092">
        <ele>354</ele>
        <time>2017-07-03T14:42:35Z</time>
      </trkpt>
      <trkpt lat="49.97549" lon="5.27996">
        <ele>353</ele>
        <time>2017-07-03T14:42:45Z</time>
      </trkpt>
      <trkpt lat="49.97568" lon="5.27889">
        <ele>353</ele>
        <time>2017-07-03T14:42:56Z</time>
      </trkpt>
      <trkpt lat="49.97582" lon="5.2779">
        <ele>350</ele>
        <time>2017-07-03T14:43:07Z</time>
      </trkpt>
      <trkpt lat="49.97594" lon="5.27702">
        <ele>349</ele>
        <time>2017-07-03T14:43:17Z</time>
      </trkpt>
      <trkpt lat="49.97605" lon="5.27677">
        <ele>347</ele>
        <time>2017-07-03T14:43:28Z</time>
      </trkpt>
      <trkpt lat="49.97609" lon="5.27736">
        <ele>346</ele>
        <time>2017-07-03T14:43:38Z</time>
      </trkpt>
      <trkpt lat="49.9761" lon="5.27805">
        <ele>347</ele>
        <time>2017-07-03T14:43:48Z</time>
      </trkpt>
      <trkpt lat="49.9761" lon="5.27877">
        <ele>347</ele>
        <time>2017-07-03T14:43:58Z</time>
      </trkpt>
      <trkpt lat="49.97607" lon="5.27962">
        <ele>347</ele>
        <time>2017-07-03T14:44:09Z</time>
      </trkpt>
      <trkpt lat="49.97605" lon="5.28043">
        <ele>348</ele>
        <time>2017-07-03T14:44:19Z</time>
      </trkpt>
      <trkpt lat="49.97601" lon="5.28138">
        <ele>349</ele>
        <time>2017-07-03T14:44:30Z</time>
      </trkpt>
      <trkpt lat="49.97604" lon="5.2823">
        <ele>349</ele>
        <time>2017-07-03T14:44:41Z</time>
      </trkpt>
      <trkpt lat="49.97612" lon="5.2832">
        <ele>348</ele>
        <time>2017-07-03T14:44:52Z</time>
      </trkpt>
      <trkpt lat="49.97626" lon="5.28419">
        <ele>347</ele>
        <time>2017-07-03T14:45:03Z</time>
      </trkpt>
      <trkpt lat="49.97641" lon="5.28525">
        <ele>346</ele>
        <time>2017-07-03T14:45:14Z</time>
      </trkpt>
      <trkpt lat="49.97659" lon="5.28637">
        <ele>342</ele>
        <time>2017-07-03T14:45:25Z</time>
      </trkpt>
      <trkpt lat="49.97711" lon="5.2865">
        <ele>341</ele>
        <time>2017-07-03T14:45:36Z</time>
      </trkpt>
      <trkpt lat="49.97778" lon="5.28669">
        <ele>339</ele>
        <time>2017-07-03T14:45:46Z</time>
      </trkpt>
      <trkpt lat="49.97839" lon="5.28738">
        <ele>334</ele>
        <time>2017-07-03T14:45:57Z</time>
      </trkpt>
      <trkpt lat="49.97878" lon="5.28714">
        <ele>333</ele>
        <time>2017-07-03T14:46:08Z</time>
      </trkpt>
      <trkpt lat="49.9792" lon="5.28658">
        <ele>333</ele>
        <time>2017-07-03T14:46:18Z</time>
      </trkpt>
      <trkpt lat="49.97954" lon="5.28583">
        <ele>332</ele>
        <time>2017-07-03T14:46:29Z</time>
      </trkpt>
      <trkpt lat="49.97991" lon="5.28519">
        <ele>330</ele>
        <time>2017-07-03T14:46:39Z</time>
      </trkpt>
      <trkpt lat="49.98031" lon="5.28446">
        <ele>330</ele>
        <time>2017-07-03T14:46:50Z</time>
      </trkpt>
      <trkpt lat="49.98071" lon="5.28387">
        <ele>330</ele>
        <time>2017-07-03T14:47:01Z</time>
      </trkpt>
      <trkpt lat="49.98105" lon="5.2834">
        <ele>329</ele>
        <time>2017-07-03T14:47:11Z</time>
      </trkpt>
      <trkpt lat="49.98144" lon="5.28295">
        <ele>328</ele>
        <time>2017-07-03T14:47:22Z</time>
      </trkpt>
      <trkpt lat="49.98174" lon="5.28268">
        <ele>329</ele>
        <time>2017-07-03T14:47:32Z</time>
      </trkpt>
      <trkpt lat="49.98193" lon="5.28257">
        <ele>329</ele>
        <time>2017-07-03T14:47:43Z</time>
      </trkpt>
      <trkpt lat="49.98217" lon="5.28249">
        <ele>330</ele>
        <time>2017-07-03T14:47:53Z</time>
      </trkpt>
      <trkpt lat="49.98242" lon="5.28243">
        <ele>332</ele>
        <time>2017-07-03T14:48:04Z</time>
      </trkpt>
      <trkpt lat="49.98268" lon="5.28237">
        <ele>334</ele>
        <time>2017-07-03T14:48:15Z</time>
      </trkpt>
      <trkpt lat="49.98293" lon="5.28234">
        <ele>335</ele>
        <time>2017-07-03T14:48:25Z</time>
      </trkpt>
      <trkpt lat="49.98315" lon="5.2823">
        <ele>337</ele>
        <time>2017-07-03T14:48:36Z</time>
      </trkpt>
      <trkpt lat="49.98337" lon="5.28227">
        <ele>339</ele>
        <time>2017-07-03T14:48:47Z</time>
      </trkpt>
      <trkpt lat="49.98358" lon="5.28228">
        <ele>340</ele>
        <time>2017-07-03T14:48:58Z</time>
      </trkpt>
      <trkpt lat="49.98377" lon="5.28227">
        <ele>342</ele>
        <time>2017-07-03T14:49:08Z</time>
      </trkpt>
      <trkpt lat="49.98397" lon="5.28227">
        <ele>343</ele>
        <time>2017-07-03T14:49:18Z</time>
      </trkpt>
      <trkpt lat="49.98415" lon="5.28226">
        <ele>344</ele>
        <time>2017-07-03T14:49:29Z</time>
      </trkpt>
      <trkpt lat="49.98431" lon="5.28225">
        <ele>346</ele>
        <time>2017-07-03T14:49:39Z</time>
      </trkpt>
      <trkpt lat="49.9845" lon="5.28225">
        <ele>347</ele>
        <time>2017-07-03T14:49:50Z</time>
      </trkpt>
      <trkpt lat="49.9847" lon="5.28225">
        <ele>349</ele>
        <time>2017-07-03T14:50:01Z</time>
      </trkpt>
      <trkpt lat="49.98489" lon="5.28225">
        <ele>351</ele>
        <time>2017-07-03T14:50:11Z</time>
      </trkpt>
      <trkpt lat="49.98507" lon="5.28223">
        <ele>352</ele>
        <time>2017-07-03T14:50:21Z</time>
      </trkpt>
      <trkpt lat="49.98518" lon="5.28201">
        <ele>354</ele>
        <time>2017-07-03T14:50:31Z</time>
      </trkpt>
      <trkpt lat="49.98522" lon="5.28153">
        <ele>353</ele>
        <time>2017-07-03T14:50:42Z</time>
      </trkpt>
      <trkpt lat="49.98523" lon="5.28074">
        <ele>351</ele>
        <time>2017-07-03T14:50:52Z</time>
      </trkpt>
      <trkpt lat="49.98519" lon="5.27942">
        <ele>350</ele>
        <time>2017-07-03T14:51:03Z</time>
      </trkpt>
      <trkpt lat="49.98497" lon="5.27811">
        <ele>346</ele>
        <time>2017-07-03T14:51:13Z</time>
      </trkpt>
      <trkpt lat="49.98476" lon="5.27686">
        <ele>344</ele>
        <time>2017-07-03T14:51:23Z</time>
      </trkpt>
      <trkpt lat="49.98458" lon="5.27591">
        <ele>344</ele>
        <time>2017-07-03T14:51:34Z</time>
      </trkpt>
      <trkpt lat="49.98445" lon="5.27523">
        <ele>345</ele>
        <time>2017-07-03T14:51:44Z</time>
      </trkpt>
      <trkpt lat="49.98437" lon="5.27461">
        <ele>347</ele>
        <time>2017-07-03T14:51:54Z</time>
      </trkpt>
      <trkpt lat="49.98436" lon="5.27391">
        <ele>348</ele>
        <time>2017-07-03T14:52:05Z</time>
      </trkpt>
      <trkpt lat="49.98439" lon="5.27315">
        <ele>347</ele>
        <time>2017-07-03T14:52:15Z</time>
      </trkpt>
      <trkpt lat="49.98443" lon="5.27214">
        <ele>346</ele>
        <time>2017-07-03T14:52:26Z</time>
      </trkpt>
      <trkpt lat="49.9844" lon="5.27089">
        <ele>342</ele>
        <time>2017-07-03T14:52:36Z</time>
      </trkpt>
      <trkpt lat="49.98417" lon="5.26934">
        <ele>336</ele>
        <time>2017-07-03T14:52:47Z</time>
      </trkpt>
      <trkpt lat="49.98391" lon="5.26784">
        <ele>332</ele>
        <time>2017-07-03T14:52:58Z</time>
      </trkpt>
      <trkpt lat="49.98356" lon="5.26718">
        <ele>327</ele>
        <time>2017-07-03T14:53:08Z</time>
      </trkpt>
      <trkpt lat="49.98261" lon="5.26737">
        <ele>322</ele>
        <time>2017-07-03T14:53:19Z</time>
      </trkpt>
      <trkpt lat="49.98169" lon="5.26762">
        <ele>314</ele>
        <time>2017-07-03T14:53:29Z</time>
      </trkpt>
      <trkpt lat="49.98142" lon="5.26838">
        <ele>312</ele>
        <time>2017-07-03T14:53:39Z</time>
      </trkpt>
      <trkpt lat="49.98139" lon="5.26841">
        <ele>312</ele>
        <time>2017-07-03T14:53:40Z</time>
      </trkpt>
    </trkseg>
  </trk>
</gpx>